Time;durP1;ratioP1;P1;durP2;ratioP2;P2;SDS_P1;SDS_P2;PMS_P1;PMS_P2;Temp;Humidity;BMP_temperature;BMP_pressure;BME280_temperature;BME280_humidity;BME280_pressure;Samples;Min_cycle;Max_cycle;Signal;HPM_P1;HPM_P2
2023/06/19 00:00:15;;;;;;;14.10;10.20;;;25.40;52.50;;;;;;5048816;28;20240;-72
2023/06/19 00:02:42;;;;;;;15.93;10.93;;;25.40;52.50;;;;;;5053178;28;20214;-72
2023/06/19 00:05:08;;;;;;;13.30;10.10;;;25.40;52.50;;;;;;5053849;28;20417;-72
2023/06/19 00:07:35;;;;;;;11.97;9.33;;;25.50;52.40;;;;;;5061442;28;20531;-72
2023/06/19 00:10:01;;;;;;;13.20;9.17;;;25.40;52.40;;;;;;5053457;28;20425;-72
2023/06/19 00:12:26;;;;;;;11.27;8.70;;;25.40;52.40;;;;;;5051705;28;20824;-72
2023/06/19 00:14:52;;;;;;;12.60;9.20;;;25.40;52.40;;;;;;5058590;28;20246;-73
2023/06/19 00:17:18;;;;;;;12.27;8.97;;;25.40;52.40;;;;;;5053415;28;20187;-72
2023/06/19 00:19:44;;;;;;;14.80;9.87;;;25.40;52.40;;;;;;5047183;28;20230;-72
2023/06/19 00:22:10;;;;;;;14.00;9.80;;;25.50;52.40;;;;;;5056936;28;20187;-71
2023/06/19 00:24:35;;;;;;;12.70;9.40;;;25.40;52.40;;;;;;5053107;28;20556;-72
2023/06/19 00:27:02;;;;;;;12.10;8.70;;;25.50;52.20;;;;;;5059536;28;20669;-71
2023/06/19 00:29:29;;;;;;;12.27;9.40;;;25.50;52.10;;;;;;5056616;28;20246;-72
2023/06/19 00:31:54;;;;;;;13.10;9.63;;;25.50;52.10;;;;;;5039177;28;20429;-72
2023/06/19 00:34:20;;;;;;;15.27;9.30;;;25.50;51.80;;;;;;5042346;28;20494;-72
2023/06/19 00:36:46;;;;;;;11.50;8.17;;;25.50;52.00;;;;;;5063043;28;20195;-72
2023/06/19 00:39:12;;;;;;;12.60;8.80;;;25.50;51.80;;;;;;5059226;28;20728;-72
2023/06/19 00:41:39;;;;;;;11.73;8.67;;;25.50;51.70;;;;;;5054477;28;20434;-72
2023/06/19 00:44:04;;;;;;;10.63;8.57;;;25.50;51.70;;;;;;5034500;28;20236;-71
2023/06/19 00:46:31;;;;;;;11.77;8.27;;;25.50;51.70;;;;;;5055436;28;21264;-70
2023/06/19 00:48:57;;;;;;;10.37;7.67;;;25.50;51.60;;;;;;5052137;28;20231;-71
2023/06/19 00:51:23;;;;;;;10.00;7.80;;;25.60;51.60;;;;;;5056326;28;20436;-71
2023/06/19 00:53:49;;;;;;;11.73;8.03;;;25.60;51.60;;;;;;5056241;28;20571;-71
2023/06/19 00:56:17;;;;;;;10.03;7.73;;;25.50;51.60;;;;;;5059617;28;20449;-71
2023/06/19 00:58:44;;;;;;;13.60;8.23;;;25.50;51.60;;;;;;5060053;28;20186;-71
2023/06/19 01:01:10;;;;;;;11.83;7.77;;;25.60;51.60;;;;;;5054289;28;20418;-71
2023/06/19 01:03:36;;;;;;;11.33;7.73;;;25.50;51.60;;;;;;5050783;28;20461;-71
2023/06/19 01:06:05;;;;;;;12.30;9.20;;;25.60;51.60;;;;;;5044239;28;20462;-71
2023/06/19 01:08:55;;;;;;;11.73;8.20;;;25.50;51.60;;;;;;5041360;28;20516;-72
2023/06/19 01:11:24;;;;;;;12.43;8.60;;;25.50;51.80;;;;;;5039400;28;20426;-70
2023/06/19 01:14:03;;;;;;;10.33;8.30;;;25.40;51.80;;;;;;5044660;28;20484;-71
2023/06/19 01:16:30;;;;;;;12.97;9.03;;;25.40;52.60;;;;;;5050923;28;20444;-72
2023/06/19 01:18:56;;;;;;;11.60;9.00;;;25.20;53.60;;;;;;5051156;28;20425;-73
2023/06/19 01:21:21;;;;;;;11.00;9.03;;;25.00;54.80;;;;;;5045571;28;20450;-72
2023/06/19 01:23:47;;;;;;;10.20;8.27;;;24.90;54.80;;;;;;5048521;28;20711;-72
2023/06/19 01:26:13;;;;;;;12.53;8.83;;;24.70;55.20;;;;;;5047229;28;20187;-73
2023/06/19 01:28:44;;;;;;;10.67;7.80;;;24.60;55.00;;;;;;5049349;28;20223;-71
2023/06/19 01:31:23;;;;;;;15.80;8.63;;;24.50;55.00;;;;;;5045883;28;20419;-72
2023/06/19 01:33:51;;;;;;;10.33;7.97;;;24.50;55.40;;;;;;5045539;28;20484;-71
2023/06/19 01:36:18;;;;;;;10.93;7.83;;;24.40;55.70;;;;;;5047655;28;20423;-71
2023/06/19 01:38:45;;;;;;;15.77;7.70;;;24.40;55.80;;;;;;5044939;28;20447;-71
2023/06/19 01:41:12;;;;;;;12.03;7.80;;;24.30;56.10;;;;;;5024301;28;20485;-72
2023/06/19 01:43:38;;;;;;;12.70;8.30;;;24.30;56.20;;;;;;5049713;28;21032;-71
2023/06/19 01:46:04;;;;;;;8.07;7.00;;;24.20;56.50;;;;;;5050003;28;20457;-71
2023/06/19 01:48:30;;;;;;;11.27;7.13;;;24.20;56.60;;;;;;5048300;28;20440;-72
2023/06/19 01:50:56;;;;;;;9.90;7.57;;;24.20;56.60;;;;;;5050723;28;20200;-72
2023/06/19 01:53:21;;;;;;;11.27;7.47;;;24.20;56.80;;;;;;5051247;28;20229;-73
2023/06/19 01:55:47;;;;;;;11.80;7.90;;;24.20;56.90;;;;;;5040320;28;20184;-72
2023/06/19 01:58:13;;;;;;;12.60;8.00;;;24.00;58.00;;;;;;5041285;28;20173;-73
2023/06/19 02:00:38;;;;;;;9.83;7.70;;;23.90;58.90;;;;;;5026950;28;20194;-73
2023/06/19 02:03:04;;;;;;;11.00;8.00;;;23.80;59.50;;;;;;5041320;28;21176;-74
2023/06/19 02:05:30;;;;;;;8.30;6.43;;;23.60;60.00;;;;;;5035302;28;20187;-72
2023/06/19 02:07:56;;;;;;;8.50;7.43;;;23.60;60.40;;;;;;5031413;28;20432;-73
2023/06/19 02:10:22;;;;;;;9.00;6.60;;;23.60;60.70;;;;;;5044009;28;21155;-74
2023/06/19 02:12:48;;;;;;;11.70;6.83;;;23.50;60.90;;;;;;5040660;28;20318;-73
2023/06/19 02:15:13;;;;;;;10.60;8.30;;;23.50;61.00;;;;;;5047014;28;20717;-71
2023/06/19 02:17:39;;;;;;;11.07;7.33;;;23.50;61.30;;;;;;5040958;28;20261;-73
2023/06/19 02:20:11;;;;;;;8.40;6.70;;;23.50;61.60;;;;;;5048553;28;20549;-72
2023/06/19 02:22:38;;;;;;;9.90;7.00;;;23.40;61.70;;;;;;5039563;28;20188;-71
2023/06/19 02:25:05;;;;;;;10.10;7.70;;;23.40;61.70;;;;;;5048385;28;20528;-72
2023/06/19 02:27:31;;;;;;;10.93;6.77;;;23.40;61.60;;;;;;5040531;28;20518;-72
2023/06/19 02:29:56;;;;;;;8.73;7.00;;;23.50;61.60;;;;;;5047915;28;20481;-72
2023/06/19 02:32:22;;;;;;;7.87;6.03;;;23.50;61.70;;;;;;5035618;28;20219;-72
2023/06/19 02:34:47;;;;;;;11.03;6.57;;;23.50;61.50;;;;;;5048043;28;20213;-73
2023/06/19 02:37:13;;;;;;;9.50;7.17;;;23.60;61.50;;;;;;5037853;28;20915;-72
2023/06/19 02:39:39;;;;;;;7.77;6.50;;;23.60;61.50;;;;;;5043097;28;20213;-72
2023/06/19 02:42:05;;;;;;;8.97;6.20;;;23.60;61.70;;;;;;5039615;28;20263;-73
2023/06/19 02:44:30;;;;;;;7.63;6.20;;;23.60;61.60;;;;;;5044515;28;20212;-73
2023/06/19 02:46:56;;;;;;;8.57;6.20;;;23.70;61.90;;;;;;5020303;28;20191;-73
2023/06/19 02:49:21;;;;;;;7.57;6.00;;;23.80;61.90;;;;;;5047139;28;20212;-72
2023/06/19 02:51:47;;;;;;;9.50;6.40;;;23.80;62.00;;;;;;5037339;28;20208;-73
2023/06/19 02:54:12;;;;;;;8.30;6.37;;;23.70;62.50;;;;;;5042200;28;20212;-72
2023/06/19 02:56:38;;;;;;;9.20;5.70;;;23.70;62.60;;;;;;5041238;28;20585;-71
2023/06/19 02:59:04;;;;;;;11.93;6.30;;;23.70;62.60;;;;;;5030838;28;20211;-73
2023/06/19 03:01:30;;;;;;;7.40;5.37;;;23.70;62.50;;;;;;5049661;28;20192;-73
2023/06/19 03:03:55;;;;;;;7.63;6.17;;;23.70;62.50;;;;;;5047202;28;20221;-73
2023/06/19 03:06:21;;;;;;;7.30;5.67;;;23.70;62.60;;;;;;5042001;28;20189;-73
2023/06/19 03:08:46;;;;;;;9.43;5.70;;;23.70;62.50;;;;;;5040640;28;20188;-73
2023/06/19 03:11:13;;;;;;;7.63;5.63;;;23.70;62.50;;;;;;5042892;28;20670;-72
2023/06/19 03:13:52;;;;;;;8.30;5.57;;;23.70;62.60;;;;;;5042902;28;20226;-72
2023/06/19 03:16:18;;;;;;;7.50;5.17;;;23.80;62.50;;;;;;5043992;28;20421;-73
2023/06/19 03:18:44;;;;;;;9.67;5.23;;;23.80;62.50;;;;;;5051490;28;20509;-71
2023/06/19 03:21:11;;;;;;;8.73;5.40;;;23.80;62.50;;;;;;5049598;28;20496;-72
2023/06/19 03:23:36;;;;;;;9.90;5.67;;;23.70;62.80;;;;;;5050345;28;20926;-72
2023/06/19 03:26:02;;;;;;;7.77;4.83;;;23.70;62.60;;;;;;5049483;28;20427;-73
2023/06/19 03:28:28;;;;;;;6.57;4.90;;;23.70;62.80;;;;;;5041368;28;20715;-72
2023/06/19 03:30:54;;;;;;;8.80;4.87;;;23.60;63.10;;;;;;5054121;28;20709;-72
2023/06/19 03:33:19;;;;;;;5.73;4.57;;;23.60;63.50;;;;;;5041360;28;20215;-72
2023/06/19 03:35:45;;;;;;;6.60;4.73;;;23.40;63.90;;;;;;5055230;28;20211;-73
2023/06/19 03:38:10;;;;;;;6.87;4.40;;;23.30;63.90;;;;;;5041679;28;20196;-72
2023/06/19 03:40:36;;;;;;;7.07;4.47;;;23.20;63.90;;;;;;5045289;28;20222;-72
2023/06/19 03:43:01;;;;;;;7.07;4.10;;;23.20;64.40;;;;;;5046791;28;20215;-72
2023/06/19 03:45:27;;;;;;;7.37;4.73;;;23.10;64.70;;;;;;5043556;28;20213;-72
2023/06/19 03:47:53;;;;;;;9.00;4.47;;;23.00;65.30;;;;;;5039136;28;20191;-73
2023/06/19 03:50:19;;;;;;;7.50;3.83;;;23.00;65.70;;;;;;5050878;28;20245;-72
2023/06/19 03:52:45;;;;;;;5.53;4.27;;;22.80;66.60;;;;;;5043792;28;20838;-72
2023/06/19 03:55:10;;;;;;;4.53;3.67;;;22.70;67.30;;;;;;5040788;28;20422;-72
2023/06/19 03:57:36;;;;;;;5.50;3.53;;;22.60;67.50;;;;;;5034169;28;20187;-73
2023/06/19 04:00:03;;;;;;;5.57;4.30;;;22.50;67.70;;;;;;5047042;28;20317;-72
2023/06/19 04:02:29;;;;;;;6.53;3.83;;;22.60;67.60;;;;;;5043378;28;20247;-72
2023/06/19 04:04:54;;;;;;;5.83;3.70;;;22.60;67.60;;;;;;5041664;28;20532;-73
2023/06/19 04:07:20;;;;;;;5.03;3.60;;;22.60;67.20;;;;;;5047889;28;20189;-72
2023/06/19 04:09:46;;;;;;;5.80;3.70;;;22.60;67.30;;;;;;5049501;28;20201;-73
2023/06/19 04:12:11;;;;;;;4.83;3.80;;;22.60;67.30;;;;;;5047281;28;20271;-72
2023/06/19 04:14:37;;;;;;;6.40;4.10;;;22.60;67.30;;;;;;5043906;28;20462;-73
2023/06/19 04:17:02;;;;;;;4.80;3.63;;;22.60;67.60;;;;;;5044445;28;20625;-72
2023/06/19 04:19:28;;;;;;;6.73;4.07;;;22.40;68.00;;;;;;5046425;28;20548;-72
2023/06/19 04:21:54;;;;;;;5.90;3.87;;;22.30;68.60;;;;;;5043978;28;20188;-74
2023/06/19 04:24:20;;;;;;;6.90;3.73;;;22.20;68.90;;;;;;5037168;28;20226;-71
2023/06/19 04:26:45;;;;;;;7.43;3.90;;;22.20;69.10;;;;;;5049719;28;20504;-72
2023/06/19 04:29:16;;;;;;;5.80;3.57;;;22.20;69.20;;;;;;5042043;28;20901;-72
2023/06/19 04:31:46;;;;;;;7.87;3.63;;;22.20;68.90;;;;;;5029263;28;20203;-70
2023/06/19 04:34:14;;;;;;;8.47;3.90;;;22.20;68.90;;;;;;5039824;28;20575;-73
2023/06/19 04:36:40;;;;;;;5.40;3.83;;;22.20;68.90;;;;;;5046683;28;20439;-73
2023/06/19 04:39:06;;;;;;;5.50;3.90;;;22.20;68.80;;;;;;5044561;28;20447;-71
2023/06/19 04:41:32;;;;;;;6.60;4.27;;;22.20;68.80;;;;;;5048940;28;20902;-72
2023/06/19 04:43:57;;;;;;;5.80;3.87;;;22.30;68.60;;;;;;5048062;28;20308;-73
2023/06/19 04:46:23;;;;;;;6.77;4.40;;;22.40;68.30;;;;;;5046927;28;20264;-73
2023/06/19 04:48:51;;;;;;;5.20;3.90;;;22.40;68.50;;;;;;5043823;28;20217;-72
2023/06/19 04:51:21;;;;;;;5.60;4.13;;;22.50;68.50;;;;;;5047755;28;20644;-72
2023/06/19 04:53:47;;;;;;;6.23;3.67;;;22.50;68.30;;;;;;5035165;28;20489;-71
2023/06/19 04:56:13;;;;;;;8.20;4.30;;;22.50;68.60;;;;;;5047473;28;20433;-71
2023/06/19 04:58:45;;;;;;;6.03;4.23;;;22.60;68.50;;;;;;5043691;28;20426;-72
2023/06/19 05:01:12;;;;;;;6.97;3.93;;;22.50;68.60;;;;;;5049534;28;20447;-71
2023/06/19 05:03:38;;;;;;;7.33;3.87;;;22.60;68.50;;;;;;5045343;28;20472;-72
2023/06/19 05:06:03;;;;;;;6.30;3.87;;;22.70;68.50;;;;;;5045251;28;20812;-71
2023/06/19 05:08:29;;;;;;;4.77;3.30;;;22.80;68.20;;;;;;5048189;28;20328;-71
2023/06/19 05:10:54;;;;;;;7.63;3.90;;;22.80;68.00;;;;;;5031447;28;20287;-71
2023/06/19 05:13:20;;;;;;;7.10;4.00;;;22.80;68.00;;;;;;5045387;28;20217;-72
2023/06/19 05:15:46;;;;;;;6.10;3.90;;;22.70;68.60;;;;;;5032841;28;20210;-70
2023/06/19 05:18:11;;;;;;;4.57;3.17;;;22.70;68.60;;;;;;5047625;28;20191;-72
2023/06/19 05:20:37;;;;;;;5.27;3.63;;;22.70;68.80;;;;;;5040165;28;20187;-72
2023/06/19 05:23:02;;;;;;;6.20;3.70;;;22.70;68.80;;;;;;5044525;28;20212;-72
2023/06/19 05:25:28;;;;;;;6.30;3.43;;;22.80;68.50;;;;;;5044088;28;20200;-73
2023/06/19 05:27:53;;;;;;;6.30;4.03;;;22.80;68.50;;;;;;5042906;28;20205;-73
2023/06/19 05:30:19;;;;;;;5.77;3.97;;;22.80;68.50;;;;;;5042290;28;20193;-73
2023/06/19 05:32:44;;;;;;;6.23;3.83;;;22.90;68.50;;;;;;5044477;28;20296;-72
2023/06/19 05:35:10;;;;;;;4.50;3.50;;;22.90;68.50;;;;;;5032807;28;20711;-72
2023/06/19 05:37:36;;;;;;;5.50;3.80;;;22.90;68.50;;;;;;5046514;28;20191;-73
2023/06/19 05:40:01;;;;;;;4.70;3.70;;;22.90;68.30;;;;;;5045315;28;20190;-73
2023/06/19 05:42:27;;;;;;;5.70;3.73;;;22.90;68.30;;;;;;5047589;28;20197;-72
2023/06/19 05:44:52;;;;;;;5.80;3.70;;;22.90;68.50;;;;;;5034241;28;20237;-73
2023/06/19 05:47:20;;;;;;;4.47;3.50;;;22.90;68.50;;;;;;5048498;28;20181;-73
2023/06/19 05:49:46;;;;;;;5.90;3.80;;;23.00;68.50;;;;;;5035703;28;20212;-72
2023/06/19 05:52:12;;;;;;;5.10;3.60;;;23.10;68.00;;;;;;5030177;28;20458;-73
2023/06/19 05:54:37;;;;;;;5.57;3.83;;;23.20;67.90;;;;;;5049410;28;20510;-71
2023/06/19 05:57:03;;;;;;;5.73;4.37;;;23.30;67.90;;;;;;5051206;28;20203;-72
2023/06/19 05:59:29;;;;;;;5.80;3.90;;;23.30;68.00;;;;;;5044232;28;20233;-73
2023/06/19 06:01:55;;;;;;;6.87;4.20;;;23.30;68.00;;;;;;5041878;28;20624;-73
2023/06/19 06:04:21;;;;;;;5.87;4.20;;;23.60;67.60;;;;;;5048238;28;20225;-76
2023/06/19 06:06:47;;;;;;;7.60;4.43;;;23.70;67.20;;;;;;5042447;28;20436;-72
2023/06/19 06:09:14;;;;;;;5.83;4.37;;;23.60;67.50;;;;;;5043840;28;20446;-72
2023/06/19 06:11:40;;;;;;;8.73;4.83;;;23.60;67.50;;;;;;5023592;28;20296;-73
2023/06/19 06:14:05;;;;;;;9.53;3.90;;;23.70;67.50;;;;;;5041929;28;20561;-72
2023/06/19 06:16:31;;;;;;;5.87;4.23;;;23.70;67.30;;;;;;5040129;28;20190;-72
2023/06/19 06:18:56;;;;;;;8.80;3.80;;;23.70;67.50;;;;;;5035878;28;20182;-73
2023/06/19 06:21:22;;;;;;;6.33;3.83;;;23.80;67.60;;;;;;5043652;28;20194;-71
2023/06/19 06:23:48;;;;;;;5.77;3.97;;;23.90;67.30;;;;;;5045250;28;20221;-72
2023/06/19 06:26:14;;;;;;;5.43;4.37;;;24.00;66.90;;;;;;5043564;28;20179;-73
2023/06/19 06:28:40;;;;;;;5.80;4.10;;;23.90;67.00;;;;;;5047160;28;20240;-73
2023/06/19 06:31:05;;;;;;;5.20;3.90;;;23.80;67.00;;;;;;5041414;28;20440;-73
2023/06/19 06:33:31;;;;;;;6.30;3.87;;;23.80;67.00;;;;;;5041513;28;20272;-73
2023/06/19 06:35:57;;;;;;;4.80;3.30;;;23.80;67.00;;;;;;5042212;28;20235;-72
2023/06/19 06:38:23;;;;;;;5.57;3.77;;;23.90;66.90;;;;;;5048361;28;20191;-73
2023/06/19 06:40:49;;;;;;;4.70;3.90;;;23.90;66.70;;;;;;5043247;28;20512;-72
2023/06/19 06:43:14;;;;;;;5.90;3.90;;;23.90;67.00;;;;;;5045528;28;20670;-74
2023/06/19 06:45:42;;;;;;;5.10;3.57;;;24.00;66.40;;;;;;5042280;28;20260;-73
2023/06/19 06:48:08;;;;;;;5.93;3.30;;;24.10;66.10;;;;;;5041845;28;20207;-72
2023/06/19 06:50:33;;;;;;;5.93;3.40;;;24.20;65.80;;;;;;5038942;28;20492;-72
2023/06/19 06:53:00;;;;;;;4.73;3.10;;;24.40;65.30;;;;;;5045440;28;20483;-73
2023/06/19 06:55:25;;;;;;;7.07;3.20;;;24.40;64.70;;;;;;5041715;28;20195;-73
2023/06/19 06:57:51;;;;;;;4.57;3.03;;;24.50;64.40;;;;;;5045557;28;20431;-73
2023/06/19 07:00:18;;;;;;;4.37;2.83;;;24.40;64.10;;;;;;5040193;28;20189;-72
2023/06/19 07:02:43;;;;;;;5.70;3.50;;;24.40;64.40;;;;;;5042613;28;20242;-71
2023/06/19 07:05:10;;;;;;;4.30;3.13;;;24.40;64.50;;;;;;5040304;28;20448;-71
2023/06/19 07:07:35;;;;;;;4.27;2.97;;;24.40;64.10;;;;;;5045113;28;20192;-76
2023/06/19 07:10:01;;;;;;;4.20;2.97;;;24.30;64.40;;;;;;5051348;28;20896;-72
2023/06/19 07:12:26;;;;;;;4.20;3.53;;;24.30;64.40;;;;;;5042862;28;20291;-73
2023/06/19 07:14:55;;;;;;;5.10;3.33;;;24.40;64.20;;;;;;5046517;28;20212;-71
2023/06/19 07:17:22;;;;;;;4.27;2.87;;;24.30;64.10;;;;;;5042111;28;20191;-72
2023/06/19 07:19:47;;;;;;;4.70;3.03;;;24.20;64.20;;;;;;5036391;28;20461;-73
2023/06/19 07:22:14;;;;;;;4.80;2.87;;;24.20;63.90;;;;;;5042322;28;20916;-71
2023/06/19 07:24:42;;;;;;;4.30;3.10;;;24.10;64.50;;;;;;5048180;28;20625;-73
2023/06/19 07:27:08;;;;;;;4.27;3.03;;;24.30;63.90;;;;;;5042226;28;20445;-70
2023/06/19 07:29:33;;;;;;;3.73;3.00;;;24.40;63.80;;;;;;5048909;28;20428;-72
2023/06/19 07:32:02;;;;;;;3.73;2.60;;;24.40;63.80;;;;;;5041376;28;20189;-72
2023/06/19 07:34:28;;;;;;;3.67;2.77;;;24.50;63.70;;;;;;5047381;28;20218;-71
2023/06/19 07:36:53;;;;;;;4.57;2.90;;;24.60;63.50;;;;;;5040766;28;20522;-72
2023/06/19 07:39:19;;;;;;;4.07;3.00;;;24.80;62.90;;;;;;5048718;28;20196;-73
2023/06/19 07:41:45;;;;;;;5.27;3.30;;;25.00;62.80;;;;;;5043987;28;20257;-72
2023/06/19 07:44:11;;;;;;;4.77;3.20;;;25.10;62.00;;;;;;5048555;28;20238;-72
2023/06/19 07:46:36;;;;;;;5.60;3.30;;;25.30;61.50;;;;;;5039904;28;20486;-73
2023/06/19 07:49:02;;;;;;;4.40;3.07;;;25.50;61.30;;;;;;5051243;28;20196;-72
2023/06/19 07:51:28;;;;;;;5.70;3.57;;;25.70;60.30;;;;;;5040883;28;20672;-71
2023/06/19 07:53:53;;;;;;;3.73;2.40;;;25.90;60.10;;;;;;5044651;28;20226;-72
2023/06/19 07:56:19;;;;;;;5.43;3.50;;;26.00;59.50;;;;;;5044406;28;20183;-71
2023/06/19 07:58:45;;;;;;;4.87;3.30;;;26.00;59.20;;;;;;5049587;28;20195;-71
2023/06/19 08:01:11;;;;;;;5.90;3.30;;;25.90;59.30;;;;;;5044777;28;20215;-72
2023/06/19 08:03:37;;;;;;;5.33;3.50;;;25.70;60.10;;;;;;5044492;28;20995;-71
2023/06/19 08:06:03;;;;;;;6.00;3.40;;;25.70;60.30;;;;;;5044297;28;20184;-72
2023/06/19 08:08:28;;;;;;;5.10;3.50;;;25.80;60.10;;;;;;5048476;28;20428;-73
2023/06/19 08:10:54;;;;;;;4.40;3.47;;;25.60;60.60;;;;;;5044835;28;20187;-71
2023/06/19 08:13:19;;;;;;;4.53;3.37;;;25.60;61.30;;;;;;5050073;28;20297;-71
2023/06/19 08:15:45;;;;;;;6.73;3.13;;;25.50;61.50;;;;;;5043678;28;20194;-72
2023/06/19 08:18:11;;;;;;;5.33;3.70;;;25.50;61.50;;;;;;5047990;28;20178;-73
2023/06/19 08:20:36;;;;;;;4.80;3.13;;;25.40;60.90;;;;;;5045819;28;20186;-72
2023/06/19 08:23:02;;;;;;;7.00;3.70;;;25.30;61.20;;;;;;5044061;28;20237;-71
2023/06/19 08:25:27;;;;;;;6.27;3.87;;;25.20;61.60;;;;;;5045426;28;20214;-72
2023/06/19 08:27:53;;;;;;;8.73;3.60;;;25.20;61.50;;;;;;5046161;28;20658;-70
2023/06/19 08:30:18;;;;;;;6.30;3.37;;;25.20;61.50;;;;;;5046171;28;20554;-71
2023/06/19 08:32:45;;;;;;;6.07;3.90;;;25.10;61.70;;;;;;5044375;28;20676;-71
2023/06/19 08:35:11;;;;;;;5.87;3.60;;;25.20;61.70;;;;;;5048799;28;20193;-71
2023/06/19 08:37:36;;;;;;;5.00;3.77;;;25.30;61.50;;;;;;5038851;28;20422;-72
2023/06/19 08:40:05;;;;;;;5.83;3.50;;;25.40;61.50;;;;;;5033920;28;20212;-71
2023/06/19 08:42:31;;;;;;;5.20;3.90;;;25.40;61.50;;;;;;5041066;28;20259;-73
2023/06/19 08:44:56;;;;;;;6.50;3.80;;;25.30;61.60;;;;;;5045790;28;20877;-71
2023/06/19 08:47:22;;;;;;;5.07;4.00;;;25.40;61.50;;;;;;5043926;28;20352;-70
2023/06/19 08:49:48;;;;;;;5.83;3.23;;;25.30;61.60;;;;;;5049847;28;20179;-72
2023/06/19 08:52:13;;;;;;;5.13;3.90;;;25.20;61.50;;;;;;5049231;28;20189;-72
2023/06/19 08:54:43;;;;;;;4.67;4.10;;;25.30;61.90;;;;;;5045690;28;20982;-72
2023/06/19 08:57:11;;;;;;;5.17;3.93;;;25.30;61.60;;;;;;5044571;28;20179;-73
2023/06/19 08:59:36;;;;;;;4.87;3.43;;;25.40;61.20;;;;;;5046784;28;20421;-71
2023/06/19 09:02:02;;;;;;;6.30;2.83;;;25.40;61.50;;;;;;5051672;28;20839;-73
2023/06/19 09:04:28;;;;;;;5.57;3.70;;;25.60;61.00;;;;;;5048328;28;20659;-72
2023/06/19 09:06:56;;;;;;;8.10;4.60;;;25.70;61.20;;;;;;5048121;28;20426;-72
2023/06/19 09:09:23;;;;;;;7.10;4.20;;;25.90;60.40;;;;;;5048291;28;20191;-72
2023/06/19 09:12:03;;;;;;;11.23;4.27;;;25.90;60.30;;;;;;5045610;28;20431;-72
2023/06/19 09:14:38;;;;;;;5.10;3.20;;;25.70;60.10;;;;;;5046169;28;20557;-72
2023/06/19 09:17:06;;;;;;;4.73;3.20;;;25.90;59.10;;;;;;5047136;28;20896;-71
2023/06/19 09:19:34;;;;;;;6.40;4.03;;;26.00;59.20;;;;;;5040476;28;20419;-73
2023/06/19 09:22:08;;;;;;;5.20;3.50;;;26.10;59.10;;;;;;5043756;28;20434;-72
2023/06/19 09:24:38;;;;;;;4.87;2.97;;;26.30;58.10;;;;;;5039176;28;20469;-72
2023/06/19 09:27:07;;;;;;;4.60;3.20;;;26.50;58.10;;;;;;5050133;28;20422;-72
2023/06/19 09:29:38;;;;;;;4.10;3.37;;;26.70;57.30;;;;;;5042329;28;20430;-72
2023/06/19 09:32:18;;;;;;;4.43;3.47;;;26.80;57.00;;;;;;5046877;28;20460;-72
2023/06/19 09:34:43;;;;;;;5.67;3.50;;;27.00;55.80;;;;;;5045270;28;20467;-72
2023/06/19 09:37:09;;;;;;;4.50;3.37;;;27.10;56.20;;;;;;5045495;28;20426;-73
2023/06/19 09:39:37;;;;;;;5.40;3.63;;;27.10;55.70;;;;;;5032890;28;20208;-73
2023/06/19 09:42:05;;;;;;;3.50;2.90;;;26.80;56.50;;;;;;5043109;28;20685;-73
2023/06/19 09:44:36;;;;;;;4.87;3.83;;;26.80;56.90;;;;;;5048498;28;21023;-73
2023/06/19 09:47:08;;;;;;;3.77;3.17;;;26.90;56.80;;;;;;5044520;28;20436;-73
2023/06/19 09:49:35;;;;;;;5.70;3.87;;;26.90;56.00;;;;;;5032014;28;20429;-72
2023/06/19 09:52:02;;;;;;;5.23;3.17;;;26.80;55.80;;;;;;5043724;28;20785;-72
2023/06/19 09:54:28;;;;;;;6.23;4.27;;;27.10;56.80;;;;;;5042407;28;20493;-72
2023/06/19 09:56:58;;;;;;;7.10;4.77;;;27.10;58.00;;;;;;5040929;28;20479;-74
2023/06/19 09:59:25;;;;;;;6.80;4.70;;;27.10;58.20;;;;;;5044126;28;20766;-74
2023/06/19 10:01:51;;;;;;;6.57;5.03;;;26.80;58.40;;;;;;5044272;28;20423;-71
2023/06/19 10:04:18;;;;;;;6.07;4.40;;;26.70;58.50;;;;;;5024257;28;20464;-73
2023/06/19 10:06:45;;;;;;;6.37;4.70;;;26.80;58.80;;;;;;5040144;28;20422;-72
2023/06/19 10:09:11;;;;;;;6.87;5.10;;;26.90;58.70;;;;;;5042514;28;20426;-74
2023/06/19 10:11:50;;;;;;;5.33;4.60;;;27.00;58.00;;;;;;5048669;28;20429;-73
2023/06/19 10:14:18;;;;;;;8.10;4.40;;;26.60;58.90;;;;;;5038614;28;20480;-74
2023/06/19 10:16:44;;;;;;;6.93;4.40;;;26.80;58.80;;;;;;5036467;28;20825;-73
2023/06/19 10:19:15;;;;;;;6.30;4.23;;;27.30;57.40;;;;;;5044769;28;20416;-73
2023/06/19 10:21:58;;;;;;;6.13;4.93;;;27.50;56.50;;;;;;5048730;28;20184;-73
2023/06/19 10:24:26;;;;;;;7.33;4.67;;;27.50;56.20;;;;;;5039818;28;20466;-73
2023/06/19 10:27:02;;;;;;;5.80;4.50;;;27.60;55.80;;;;;;5041368;28;20801;-73
2023/06/19 10:29:39;;;;;;;7.00;4.30;;;28.00;55.30;;;;;;5046321;28;20419;-74
2023/06/19 10:32:04;;;;;;;7.17;4.80;;;27.70;55.60;;;;;;5042455;28;20411;-74
2023/06/19 10:34:34;;;;;;;5.53;4.13;;;27.40;55.80;;;;;;5038694;28;20495;-74
2023/06/19 10:37:00;;;;;;;5.73;4.63;;;28.20;55.30;;;;;;5040910;28;20196;-73
2023/06/19 10:39:25;;;;;;;9.17;5.60;;;28.80;53.80;;;;;;5040935;28;20419;-73
2023/06/19 10:41:51;;;;;;;6.90;5.43;;;28.50;55.40;;;;;;5040072;28;20209;-73
2023/06/19 10:44:16;;;;;;;8.27;5.10;;;28.60;55.30;;;;;;5044139;28;20201;-72
2023/06/19 10:46:42;;;;;;;9.57;5.73;;;28.00;56.80;;;;;;5042847;28;20247;-74
2023/06/19 10:49:10;;;;;;;8.30;4.90;;;27.90;57.00;;;;;;5043574;28;20284;-72
2023/06/19 10:51:40;;;;;;;10.23;5.97;;;27.90;57.00;;;;;;5044558;28;20197;-73
2023/06/19 10:54:06;;;;;;;9.33;5.40;;;27.20;58.80;;;;;;5028913;28;20557;-74
2023/06/19 10:56:33;;;;;;;8.47;4.70;;;27.10;59.50;;;;;;5042324;28;20440;-73
2023/06/19 10:59:02;;;;;;;8.53;4.90;;;26.80;60.10;;;;;;5031712;28;20834;-72
2023/06/19 11:01:39;;;;;;;7.97;5.60;;;26.90;60.00;;;;;;5026208;28;20444;-74
2023/06/19 11:04:06;;;;;;;10.23;6.00;;;26.80;59.90;;;;;;5044040;28;20539;-71
2023/06/19 11:06:33;;;;;;;5.23;4.33;;;26.80;60.30;;;;;;5044269;28;20423;-75
2023/06/19 11:09:00;;;;;;;8.80;5.00;;;27.10;59.60;;;;;;5025407;28;20437;-74
2023/06/19 11:11:44;;;;;;;8.70;5.53;;;27.10;59.50;;;;;;5043624;28;20451;-74
2023/06/19 11:14:14;;;;;;;7.47;5.20;;;27.30;59.10;;;;;;5030790;28;20846;-72
2023/06/19 11:16:43;;;;;;;9.20;5.13;;;27.80;58.00;;;;;;5039814;28;20936;-73
2023/06/19 11:19:23;;;;;;;8.90;5.93;;;27.60;58.70;;;;;;5038487;28;20407;-72
2023/06/19 11:21:52;;;;;;;10.30;4.93;;;27.80;58.20;;;;;;5053249;28;20461;-74
2023/06/19 11:24:18;;;;;;;5.70;5.10;;;28.00;57.60;;;;;;5045216;28;20451;-75
2023/06/19 11:26:49;;;;;;;6.97;5.63;;;28.40;56.50;;;;;;5042879;28;20462;-75
2023/06/19 11:29:17;;;;;;;8.07;4.80;;;27.50;58.80;;;;;;5053344;28;20407;-74
2023/06/19 11:31:43;;;;;;;6.33;4.77;;;27.30;59.30;;;;;;5050932;28;20430;-72
2023/06/19 11:34:08;;;;;;;9.73;5.03;;;27.10;59.60;;;;;;5047338;28;20508;-74
2023/06/19 11:36:37;;;;;;;8.37;4.53;;;27.50;58.40;;;;;;5039669;28;20181;-76
2023/06/19 11:39:05;;;;;;;7.23;4.97;;;27.70;57.80;;;;;;5031366;28;20177;-75
2023/06/19 11:41:30;;;;;;;9.53;5.57;;;28.00;57.00;;;;;;5043664;28;20435;-74
2023/06/19 11:44:02;;;;;;;9.13;5.00;;;28.20;56.20;;;;;;5044738;28;20486;-75
2023/06/19 11:46:31;;;;;;;7.77;5.50;;;28.00;56.80;;;;;;5039113;28;20212;-75
2023/06/19 11:49:18;;;;;;;7.03;5.20;;;28.10;56.50;;;;;;5045419;28;20477;-74
2023/06/19 11:51:44;;;;;;;9.13;5.27;;;27.90;57.40;;;;;;5044683;28;20419;-73
2023/06/19 11:54:11;;;;;;;8.07;5.47;;;28.40;55.70;;;;;;5028144;28;20482;-75
2023/06/19 11:56:40;;;;;;;7.73;5.13;;;28.80;55.20;;;;;;5025009;28;20620;-73
2023/06/19 11:59:06;;;;;;;7.90;5.57;;;28.90;54.90;;;;;;5041591;28;20739;-75
2023/06/19 12:01:33;;;;;;;7.80;4.60;;;29.00;55.00;;;;;;5042935;28;20434;-74
2023/06/19 12:03:59;;;;;;;8.40;5.30;;;29.60;52.60;;;;;;5038508;28;20282;-74
2023/06/19 12:06:24;;;;;;;9.03;4.90;;;29.80;52.20;;;;;;5041363;28;20411;-73
2023/06/19 12:08:50;;;;;;;8.23;5.07;;;30.00;51.80;;;;;;5025675;28;20496;-74
2023/06/19 12:11:16;;;;;;;6.57;4.50;;;30.00;51.20;;;;;;5044120;28;20228;-73
2023/06/19 12:13:42;;;;;;;6.57;4.97;;;30.40;50.20;;;;;;5045558;28;20217;-75
2023/06/19 12:16:08;;;;;;;5.80;4.40;;;30.20;50.60;;;;;;5049193;28;20235;-76
2023/06/19 12:18:34;;;;;;;6.43;4.87;;;30.00;51.30;;;;;;5036840;28;20181;-73
2023/06/19 12:21:00;;;;;;;7.13;5.50;;;30.40;50.70;;;;;;5049198;28;20933;-74
2023/06/19 12:23:25;;;;;;;7.20;5.00;;;30.10;50.70;;;;;;5046825;28;20458;-75
2023/06/19 12:25:51;;;;;;;8.53;5.60;;;29.80;51.70;;;;;;5046530;28;20212;-73
2023/06/19 12:28:19;;;;;;;7.77;5.17;;;29.40;52.60;;;;;;5030942;28;20208;-75
2023/06/19 12:30:45;;;;;;;8.23;5.87;;;30.00;51.60;;;;;;5047634;28;20612;-75
2023/06/19 12:33:11;;;;;;;9.83;5.00;;;30.10;51.30;;;;;;5033513;28;20478;-74
2023/06/19 12:35:41;;;;;;;7.50;5.67;;;29.90;51.70;;;;;;5046683;28;20766;-73
2023/06/19 12:38:07;;;;;;;10.57;6.00;;;30.00;51.30;;;;;;5043906;28;20192;-76
2023/06/19 12:40:33;;;;;;;7.63;5.50;;;29.10;53.70;;;;;;5045535;28;20436;-75
2023/06/19 12:42:58;;;;;;;6.40;4.90;;;29.00;54.00;;;;;;5038472;28;20447;-74